createdAt,value
2023-04-06T00:02:08.055Z,5.30
2023-04-06T00:04:34.572Z,5.25
2023-04-06T00:07:01.144Z,5.50
2023-04-06T00:09:27.678Z,5.35
2023-04-06T00:11:54.121Z,5.70
2023-04-06T00:14:21.079Z,5.47
2023-04-06T00:16:47.858Z,5.78
2023-04-06T00:19:14.412Z,5.20
2023-04-06T00:21:40.883Z,4.90
2023-04-06T00:24:07.447Z,5.20
2023-04-06T00:26:33.999Z,5.40
2023-04-06T00:29:00.757Z,5.22
2023-04-06T00:31:27.279Z,5.53
2023-04-06T00:33:53.871Z,5.25
2023-04-06T00:36:20.467Z,5.67
2023-04-06T00:38:47.013Z,5.57
2023-04-06T00:41:13.734Z,5.82
2023-04-06T00:43:40.334Z,5.40
2023-04-06T00:46:06.915Z,5.68
2023-04-06T00:48:33.830Z,5.90
2023-04-06T00:51:02.574Z,5.60
2023-04-06T00:53:29.068Z,5.38
2023-04-06T00:55:56.767Z,5.40
2023-04-06T00:58:23.260Z,5.32
2023-04-06T01:00:55.748Z,4.93
2023-04-06T01:03:23.514Z,5.63
2023-04-06T01:05:50.424Z,5.18
2023-04-06T01:08:21.811Z,5.15
2023-04-06T01:10:51.462Z,5.13
2023-04-06T01:13:25.462Z,5.27
2023-04-06T01:15:59.457Z,5.25
2023-04-06T01:18:44.267Z,6.32
2023-04-06T01:21:16.881Z,5.43
2023-04-06T01:24:00.353Z,5.32
2023-04-06T01:26:35.765Z,5.77
2023-04-06T01:29:07.290Z,5.70
2023-04-06T01:31:34.030Z,5.82
2023-04-06T01:34:00.621Z,5.63
2023-04-06T01:36:27.553Z,6.28
2023-04-06T01:39:13.013Z,5.37
2023-04-06T01:41:40.740Z,5.47
2023-04-06T01:44:07.351Z,6.10
2023-04-06T01:46:33.937Z,5.90
2023-04-06T01:49:03.006Z,5.10
2023-04-06T01:51:37.595Z,5.83
2023-04-06T01:54:07.291Z,5.57
2023-04-06T01:57:00.006Z,5.82
2023-04-06T01:59:46.314Z,5.78
2023-04-06T02:02:22.329Z,6.35
2023-04-06T02:04:58.305Z,6.00
2023-04-06T02:07:25.690Z,5.88
2023-04-06T02:09:56.558Z,6.00
2023-04-06T02:12:29.774Z,5.57
2023-04-06T02:14:56.446Z,5.55
2023-04-06T02:17:22.916Z,6.70
2023-04-06T02:19:49.395Z,5.90
2023-04-06T02:22:15.897Z,6.40
2023-04-06T02:24:42.467Z,5.47
2023-04-06T02:27:09.101Z,5.90
2023-04-06T02:29:35.568Z,5.60
2023-04-06T02:32:03.375Z,6.00
2023-04-06T02:34:32.503Z,5.78
2023-04-06T02:36:59.881Z,5.97
2023-04-06T02:39:26.436Z,6.20
2023-04-06T02:41:53.212Z,6.20
2023-04-06T02:44:23.215Z,5.72
2023-04-06T02:46:49.782Z,6.30
2023-04-06T02:49:16.314Z,6.55
2023-04-06T02:51:43.674Z,6.13
2023-04-06T02:54:21.171Z,6.63
2023-04-06T02:56:47.757Z,6.80
2023-04-06T02:59:14.591Z,6.03
2023-04-06T03:01:47.040Z,5.82
2023-04-06T03:04:13.772Z,6.70
2023-04-06T03:06:40.288Z,7.13
2023-04-06T03:09:17.442Z,6.40
2023-04-06T03:11:44.977Z,7.43
2023-04-06T03:14:11.926Z,6.68
2023-04-06T03:16:38.452Z,6.50
2023-04-06T03:19:04.994Z,6.50
2023-04-06T03:21:34.646Z,6.40
2023-04-06T03:24:01.655Z,6.65
2023-04-06T03:26:28.177Z,6.65
2023-04-06T03:28:54.820Z,6.22
2023-04-06T03:31:29.624Z,7.20
2023-04-06T03:34:05.577Z,6.57
2023-04-06T03:36:35.758Z,6.05
2023-04-06T03:39:03.904Z,6.18
2023-04-06T03:41:33.362Z,6.47
2023-04-06T03:44:20.733Z,6.43
2023-04-06T03:46:47.315Z,6.95
2023-04-06T03:49:14.119Z,6.43
2023-04-06T03:51:43.687Z,6.30
2023-04-06T03:54:10.215Z,7.00
2023-04-06T03:56:37.415Z,6.63
2023-04-06T03:59:03.993Z,6.88
2023-04-06T04:01:30.694Z,7.03
2023-04-06T04:03:57.504Z,6.93
2023-04-06T04:06:24.258Z,6.60
2023-04-06T04:08:50.945Z,7.00
2023-04-06T04:11:17.468Z,7.25
2023-04-06T04:13:47.256Z,7.53
2023-04-06T04:16:14.250Z,6.60
2023-04-06T04:18:44.527Z,6.72
2023-04-06T04:21:11.050Z,7.00
2023-04-06T04:23:37.766Z,7.05
2023-04-06T04:26:04.768Z,7.07
2023-04-06T04:28:31.365Z,6.68
2023-04-06T04:30:58.309Z,6.72
2023-04-06T04:33:24.831Z,6.70
2023-04-06T04:35:54.482Z,7.15
2023-04-06T04:38:23.834Z,7.97
2023-04-06T04:40:53.331Z,7.47
2023-04-06T04:43:20.053Z,6.65
2023-04-06T04:45:46.705Z,7.93
2023-04-06T04:48:23.765Z,7.38
2023-04-06T04:50:56.254Z,7.55
2023-04-06T04:53:26.151Z,7.95
2023-04-06T04:55:58.484Z,7.60
2023-04-06T04:58:26.961Z,7.20
2023-04-06T05:00:57.057Z,7.07
2023-04-06T05:03:26.657Z,7.55
2023-04-06T05:05:58.515Z,6.55
2023-04-06T05:08:28.675Z,7.32
2023-04-06T05:10:55.511Z,7.47
2023-04-06T05:13:22.679Z,7.82
2023-04-06T05:15:51.732Z,7.93
2023-04-06T05:18:28.210Z,7.65
2023-04-06T05:20:55.754Z,7.82
2023-04-06T05:23:29.306Z,7.20
2023-04-06T05:25:57.419Z,7.18
2023-04-06T05:28:23.977Z,8.50
2023-04-06T05:30:50.708Z,8.02
2023-04-06T05:33:17.437Z,8.02
2023-04-06T05:36:02.624Z,7.30
2023-04-06T05:38:29.434Z,7.00
2023-04-06T05:40:59.523Z,7.70
2023-04-06T05:43:30.645Z,6.50
2023-04-06T05:45:59.178Z,8.02
2023-04-06T05:48:27.074Z,7.77
2023-04-06T05:50:54.189Z,8.15
2023-04-06T05:53:27.485Z,7.45
2023-04-06T05:55:57.853Z,8.25
2023-04-06T05:58:26.081Z,8.73
2023-04-06T06:01:01.750Z,8.43
2023-04-06T06:03:36.806Z,8.68
2023-04-06T06:06:05.521Z,7.72
2023-04-06T06:08:53.443Z,8.10
2023-04-06T06:11:20.368Z,8.45
2023-04-06T06:13:48.507Z,7.63
2023-04-06T06:16:15.681Z,8.55
2023-04-06T06:18:45.818Z,8.00
2023-04-06T06:21:13.433Z,7.90
2023-04-06T06:23:40.550Z,8.52
2023-04-06T06:26:07.457Z,8.33
2023-04-06T06:28:34.090Z,7.95
2023-04-06T06:31:02.039Z,7.95
2023-04-06T06:33:29.754Z,7.88
2023-04-06T06:35:57.945Z,8.63
2023-04-06T06:38:24.450Z,8.13
2023-04-06T06:40:51.836Z,7.35
2023-04-06T06:43:19.204Z,8.02
2023-04-06T06:45:52.010Z,8.10
2023-04-06T06:48:18.625Z,7.75
2023-04-06T06:50:45.113Z,7.17
2023-04-06T06:53:13.216Z,7.40
2023-04-06T06:55:39.762Z,7.82
2023-04-06T06:58:07.164Z,8.13
2023-04-06T07:00:33.802Z,8.05
2023-04-06T07:03:00.608Z,8.17
2023-04-06T07:05:28.963Z,8.10
2023-04-06T07:07:57.624Z,7.60
2023-04-06T07:10:25.767Z,8.00
2023-04-06T07:12:52.379Z,8.90
2023-04-06T07:15:18.939Z,7.73
2023-04-06T07:17:46.491Z,9.20
2023-04-06T07:20:13.616Z,8.70
2023-04-06T07:22:41.196Z,11.55
2023-04-06T07:25:08.134Z,11.43
2023-04-06T07:27:34.927Z,9.90
2023-04-06T07:30:02.192Z,9.30
2023-04-06T07:32:29.012Z,7.93
2023-04-06T07:34:55.593Z,10.15
2023-04-06T07:37:22.823Z,9.50
2023-04-06T07:39:50.193Z,8.93
2023-04-06T07:42:17.072Z,9.65
2023-04-06T07:44:44.372Z,9.02
2023-04-06T07:47:11.756Z,9.52
2023-04-06T07:49:38.290Z,9.93
2023-04-06T07:52:05.921Z,9.73
2023-04-06T07:54:33.407Z,9.38
2023-04-06T07:56:59.949Z,9.32
2023-04-06T07:59:26.756Z,8.85
2023-04-06T08:01:53.288Z,9.43
2023-04-06T08:04:21.499Z,8.30
2023-04-06T08:06:48.002Z,9.63
2023-04-06T08:09:14.543Z,7.95
2023-04-06T08:11:41.398Z,9.52
2023-04-06T08:14:08.127Z,8.50
2023-04-06T08:16:34.718Z,10.27
2023-04-06T08:19:01.215Z,8.88
2023-04-06T08:21:27.686Z,9.55
2023-04-06T08:23:54.137Z,9.48
2023-04-06T08:26:20.958Z,8.30
2023-04-06T08:28:47.425Z,10.33
2023-04-06T08:31:13.941Z,9.25
2023-04-06T08:33:40.677Z,9.18
2023-04-06T08:36:09.051Z,9.40
2023-04-06T08:38:35.747Z,9.93
2023-04-06T08:41:08.511Z,10.30
2023-04-06T08:43:40.277Z,10.27
2023-04-06T08:46:06.954Z,10.25
2023-04-06T08:48:34.303Z,10.43
2023-04-06T08:51:01.111Z,10.20
2023-04-06T08:53:27.604Z,10.47
2023-04-06T08:55:54.621Z,9.68
2023-04-06T08:58:31.567Z,9.82
2023-04-06T09:01:09.260Z,10.60
2023-04-06T09:03:39.515Z,10.50
2023-04-06T09:06:07.333Z,9.57
2023-04-06T09:08:35.520Z,10.27
2023-04-06T09:11:03.526Z,11.93
2023-04-06T09:13:30.347Z,11.68
2023-04-06T09:16:04.622Z,9.65
2023-04-06T09:18:32.275Z,9.77
2023-04-06T09:21:03.728Z,10.65
2023-04-06T09:23:30.812Z,9.95
2023-04-06T09:26:14.546Z,9.90
2023-04-06T09:28:46.983Z,10.00
2023-04-06T09:31:18.348Z,9.80
2023-04-06T09:33:46.861Z,10.70
2023-04-06T09:36:16.368Z,10.27
2023-04-06T09:38:56.810Z,10.98
2023-04-06T09:41:31.253Z,11.07
2023-04-06T09:44:11.440Z,10.03
2023-04-06T09:46:59.072Z,10.75
2023-04-06T09:49:29.039Z,10.10
2023-04-06T09:51:59.548Z,10.90
2023-04-06T09:54:29.960Z,11.02
2023-04-06T09:56:59.673Z,9.50
2023-04-06T09:59:47.607Z,10.32
2023-04-06T10:02:29.654Z,10.07
2023-04-06T10:05:34.536Z,9.88
2023-04-06T10:08:06.603Z,9.60
2023-04-06T10:10:33.114Z,10.30
2023-04-06T10:12:59.835Z,9.70
2023-04-06T10:15:28.756Z,10.98
2023-04-06T10:17:55.538Z,9.55
2023-04-06T10:20:26.569Z,11.73
2023-04-06T10:22:55.071Z,9.63
2023-04-06T10:25:29.566Z,10.85
2023-04-06T10:28:06.542Z,10.18
2023-04-06T10:30:34.317Z,12.38
2023-04-06T10:33:01.120Z,11.85
2023-04-06T10:35:40.075Z,10.70
2023-04-06T10:38:06.841Z,10.57
2023-04-06T10:40:37.124Z,10.90
2023-04-06T10:43:22.063Z,10.93
2023-04-06T10:46:00.508Z,11.77
2023-04-06T10:48:44.063Z,11.63
2023-04-06T10:51:16.004Z,12.45
2023-04-06T10:53:47.737Z,11.15
2023-04-06T10:56:16.297Z,12.43
2023-04-06T10:58:50.296Z,10.23
2023-04-06T11:01:18.333Z,9.93
2023-04-06T11:03:50.432Z,11.00
2023-04-06T11:06:35.042Z,11.82
2023-04-06T11:09:01.616Z,10.82
2023-04-06T11:11:28.345Z,10.57
2023-04-06T11:13:58.327Z,10.80
2023-04-06T11:16:30.751Z,11.18
2023-04-06T11:18:59.846Z,11.13
2023-04-06T11:21:44.524Z,13.77
2023-04-06T11:24:13.293Z,11.50
2023-04-06T11:26:49.234Z,11.57
2023-04-06T11:29:21.036Z,11.77
2023-04-06T11:31:49.442Z,11.70
2023-04-06T11:34:20.942Z,11.23
2023-04-06T11:36:49.342Z,12.02
2023-04-06T11:39:20.682Z,11.77
2023-04-06T11:41:51.244Z,11.70
2023-04-06T11:44:33.771Z,11.38
2023-04-06T11:47:01.812Z,9.90
2023-04-06T11:49:30.324Z,9.73
2023-04-06T11:51:58.157Z,9.80
2023-04-06T11:54:35.811Z,10.80
2023-04-06T11:57:03.348Z,10.30
2023-04-06T11:59:30.010Z,9.82
2023-04-06T12:01:58.170Z,10.57
2023-04-06T12:04:25.005Z,9.93
2023-04-06T12:06:51.820Z,9.82
2023-04-06T12:09:18.567Z,7.43
2023-04-06T12:11:45.212Z,8.73
2023-04-06T12:14:12.303Z,7.70
2023-04-06T12:16:38.812Z,7.67
2023-04-06T12:19:05.471Z,9.35
2023-04-06T12:21:32.645Z,9.43
2023-04-06T12:23:59.674Z,8.18
2023-04-06T12:26:26.542Z,8.70
2023-04-06T12:28:53.522Z,9.77
2023-04-06T12:31:22.303Z,9.55
2023-04-06T12:33:50.312Z,9.15
2023-04-06T12:36:20.141Z,9.10
2023-04-06T12:38:48.794Z,8.70
2023-04-06T12:41:15.883Z,8.80
2023-04-06T12:43:43.212Z,9.30
2023-04-06T12:46:10.277Z,10.57
2023-04-06T12:48:37.398Z,10.60
2023-04-06T12:51:06.268Z,9.48
2023-04-06T12:53:33.971Z,10.13
2023-04-06T12:56:01.542Z,10.82
2023-04-06T12:58:29.222Z,9.88
2023-04-06T13:00:57.000Z,10.73
2023-04-06T13:03:23.658Z,9.93
2023-04-06T13:05:52.957Z,10.83
2023-04-06T13:08:20.982Z,11.18
2023-04-06T13:10:49.055Z,11.57
2023-04-06T13:13:16.136Z,10.13
2023-04-06T13:15:42.738Z,9.60
2023-04-06T13:18:09.889Z,8.17
2023-04-06T13:20:36.638Z,7.53
2023-04-06T13:23:03.182Z,8.30
2023-04-06T13:25:30.635Z,9.98
2023-04-06T13:27:57.176Z,8.98
2023-04-06T13:30:23.885Z,9.90
2023-04-06T13:32:50.548Z,10.43
2023-04-06T13:35:17.731Z,8.60
2023-04-06T13:37:45.222Z,9.43
2023-04-06T13:40:12.268Z,8.73
2023-04-06T13:42:41.747Z,7.63
2023-04-06T13:45:08.974Z,7.13
2023-04-06T13:47:35.892Z,7.57
2023-04-06T13:50:02.514Z,6.78
2023-04-06T13:52:28.994Z,6.95
2023-04-06T13:54:55.524Z,6.70
2023-04-06T13:57:22.250Z,7.35
2023-04-06T13:59:50.682Z,7.95
2023-04-06T14:02:17.574Z,8.20
2023-04-06T14:04:44.189Z,7.25
2023-04-06T14:07:10.662Z,7.17
2023-04-06T14:09:37.141Z,7.57
2023-04-06T14:12:03.710Z,7.03
2023-04-06T14:14:30.438Z,7.85
2023-04-06T14:16:57.061Z,6.30
2023-04-06T14:19:23.558Z,6.03
2023-04-06T14:21:50.483Z,6.00
2023-04-06T14:24:18.967Z,5.90
2023-04-06T14:26:45.566Z,6.32
2023-04-06T14:29:12.064Z,6.28
2023-04-06T14:31:38.658Z,6.73
2023-04-06T14:34:05.586Z,6.70
2023-04-06T14:36:37.407Z,6.78
2023-04-06T14:39:07.625Z,6.60
2023-04-06T14:41:35.665Z,7.10
2023-04-06T14:44:02.929Z,7.00
2023-04-06T14:46:29.532Z,7.13
2023-04-06T14:48:59.854Z,7.47
2023-04-06T14:51:28.151Z,6.90
2023-04-06T14:53:55.342Z,7.28
2023-04-06T14:56:25.401Z,7.20
2023-04-06T14:58:52.432Z,7.38
2023-04-06T15:01:21.901Z,7.35
2023-04-06T15:03:48.773Z,6.70
2023-04-06T15:06:17.397Z,8.98
2023-04-06T15:08:44.633Z,8.10
2023-04-06T15:11:12.108Z,7.43
2023-04-06T15:13:39.393Z,7.57
2023-04-06T15:16:06.606Z,6.95
2023-04-06T15:18:34.078Z,6.88
2023-04-06T15:21:00.596Z,7.57
2023-04-06T15:23:30.558Z,7.45
2023-04-06T15:26:00.084Z,8.48
2023-04-06T15:28:26.862Z,7.18
2023-04-06T15:30:54.891Z,9.32
2023-04-06T15:33:21.862Z,8.33
2023-04-06T15:35:48.881Z,7.72
2023-04-06T15:38:15.758Z,8.15
2023-04-06T15:40:47.074Z,8.63
2023-04-06T15:43:14.204Z,7.45
2023-04-06T15:45:41.765Z,8.50
2023-04-06T15:48:08.920Z,6.78
2023-04-06T15:50:36.561Z,6.90
2023-04-06T15:53:03.391Z,7.43
2023-04-06T15:55:29.867Z,8.23
2023-04-06T15:57:56.318Z,8.37
2023-04-06T16:00:22.989Z,8.63
2023-04-06T16:02:49.618Z,8.02
2023-04-06T16:05:16.303Z,7.70
2023-04-06T16:07:43.120Z,7.20
2023-04-06T16:10:10.380Z,7.53
2023-04-06T16:12:36.939Z,7.57
2023-04-06T16:15:03.584Z,7.72
2023-04-06T16:17:30.404Z,8.02
2023-04-06T16:19:57.067Z,7.68
2023-04-06T16:22:23.591Z,8.10
2023-04-06T16:24:50.419Z,7.90
2023-04-06T16:27:17.638Z,8.02
2023-04-06T16:29:44.113Z,8.13
2023-04-06T16:32:12.256Z,7.72
2023-04-06T16:34:38.895Z,7.03
2023-04-06T16:37:05.710Z,7.78
2023-04-06T16:39:32.326Z,8.32
2023-04-06T16:41:59.737Z,7.80
2023-04-06T16:44:28.437Z,8.00
2023-04-06T16:46:54.910Z,9.40
2023-04-06T16:49:21.639Z,8.07
2023-04-06T16:51:49.718Z,6.85
2023-04-06T16:54:16.653Z,8.38
2023-04-06T16:56:43.224Z,8.20
2023-04-06T16:59:09.979Z,8.20
2023-04-06T17:01:36.827Z,8.23
2023-04-06T17:04:03.678Z,10.85
2023-04-06T17:06:30.982Z,7.50
2023-04-06T17:08:59.635Z,7.55
2023-04-06T17:11:31.676Z,6.67
2023-04-06T17:14:02.724Z,7.65
2023-04-06T17:16:29.628Z,6.82
2023-04-06T17:18:57.205Z,7.28
2023-04-06T17:21:24.054Z,6.68
2023-04-06T17:23:50.539Z,7.47
2023-04-06T17:26:17.008Z,7.30
2023-04-06T17:28:43.874Z,8.07
2023-04-06T17:31:12.246Z,7.78
2023-04-06T17:33:40.263Z,9.05
2023-04-06T17:36:09.624Z,8.53
2023-04-06T17:38:36.209Z,8.80
2023-04-06T17:41:06.049Z,9.00
2023-04-06T17:43:33.416Z,8.80
2023-04-06T17:45:59.948Z,8.10
2023-04-06T17:48:27.706Z,8.03
2023-04-06T17:50:54.256Z,9.70
2023-04-06T17:53:20.780Z,9.75
2023-04-06T17:55:47.389Z,9.18
2023-04-06T17:58:13.881Z,10.65
2023-04-06T18:00:40.324Z,9.67
2023-04-06T18:03:06.915Z,9.90
2023-04-06T18:05:33.434Z,8.88
2023-04-06T18:07:59.899Z,9.13
2023-04-06T18:10:26.431Z,8.00
2023-04-06T18:12:53.006Z,7.93
2023-04-06T18:15:19.527Z,9.68
2023-04-06T18:17:47.142Z,11.13
2023-04-06T18:20:15.102Z,10.40
2023-04-06T18:22:42.371Z,10.32
2023-04-06T18:25:09.218Z,12.70
2023-04-06T18:27:35.911Z,10.75
2023-04-06T18:30:03.685Z,11.88
2023-04-06T18:32:30.624Z,12.02
2023-04-06T18:34:58.130Z,10.98
2023-04-06T18:37:25.957Z,13.97
2023-04-06T18:39:53.601Z,13.02
2023-04-06T18:42:20.704Z,12.30
2023-04-06T18:44:47.243Z,14.82
2023-04-06T18:47:13.797Z,12.20
2023-04-06T18:49:40.352Z,12.47
2023-04-06T18:52:07.147Z,13.38
2023-04-06T18:54:33.633Z,14.13
2023-04-06T18:57:01.270Z,14.10
2023-04-06T18:59:30.274Z,13.55
2023-04-06T19:01:57.065Z,15.90
2023-04-06T19:04:23.958Z,14.73
2023-04-06T19:06:50.784Z,13.10
2023-04-06T19:09:17.407Z,15.02
2023-04-06T19:11:43.944Z,18.02
2023-04-06T19:14:10.479Z,17.37
2023-04-06T19:16:40.985Z,13.30
2023-04-06T19:19:08.314Z,16.50
2023-04-06T19:21:34.981Z,16.30
2023-04-06T19:24:02.264Z,16.58
2023-04-06T19:26:30.305Z,16.50
2023-04-06T19:28:56.980Z,17.00
2023-04-06T19:31:23.579Z,14.35
2023-04-06T19:33:50.100Z,17.90
2023-04-06T19:36:16.945Z,19.15
2023-04-06T19:38:43.498Z,16.23
2023-04-06T19:41:10.099Z,16.75
2023-04-06T19:43:36.597Z,18.45
2023-04-06T19:46:04.437Z,20.48
2023-04-06T19:48:32.795Z,17.38
2023-04-06T19:50:59.254Z,17.77
2023-04-06T19:53:25.896Z,19.25
2023-04-06T19:55:52.449Z,19.08
2023-04-06T19:58:18.981Z,18.67
2023-04-06T20:00:45.556Z,23.00
2023-04-06T20:03:12.163Z,19.40
2023-04-06T20:05:38.811Z,22.92
2023-04-06T20:08:05.564Z,23.23
2023-04-06T20:10:32.353Z,18.55
2023-04-06T20:13:01.192Z,19.80
2023-04-06T20:15:27.694Z,22.63
2023-04-06T20:17:54.206Z,20.25
2023-04-06T20:20:21.013Z,19.50
2023-04-06T20:22:50.019Z,21.42
2023-04-06T20:25:17.460Z,18.45
2023-04-06T20:27:45.280Z,21.27
2023-04-06T20:30:13.933Z,19.38
2023-04-06T20:32:40.533Z,19.50
2023-04-06T20:35:07.606Z,20.25
2023-04-06T20:37:35.243Z,19.38
2023-04-06T20:40:01.700Z,19.93
2023-04-06T20:42:28.202Z,21.88
2023-04-06T20:44:56.869Z,22.55
2023-04-06T20:47:23.565Z,21.85
2023-04-06T20:49:50.186Z,22.80
2023-04-06T20:52:17.105Z,19.63
2023-04-06T20:54:43.606Z,19.33
2023-04-06T20:57:10.409Z,19.25
2023-04-06T20:59:37.774Z,21.95
2023-04-06T21:02:04.432Z,21.05
2023-04-06T21:04:31.286Z,18.90
2023-04-06T21:06:57.975Z,19.58
2023-04-06T21:09:26.733Z,19.75
2023-04-06T21:11:53.292Z,20.83
2023-04-06T21:14:21.123Z,19.73
2023-04-06T21:16:47.924Z,21.10
2023-04-06T21:19:14.406Z,18.40
2023-04-06T21:21:40.909Z,20.08
2023-04-06T21:24:07.525Z,22.63
2023-04-06T21:26:35.141Z,20.60
2023-04-06T21:29:01.747Z,18.43
2023-04-06T21:31:28.308Z,19.33
2023-04-06T21:33:54.916Z,20.15
2023-04-06T21:36:21.707Z,18.90
2023-04-06T21:38:48.304Z,18.33
2023-04-06T21:41:14.749Z,19.57
2023-04-06T21:43:41.254Z,19.20
2023-04-06T21:46:07.873Z,21.98
2023-04-06T21:48:34.385Z,22.63
2023-04-06T21:51:01.007Z,20.48
2023-04-06T21:53:27.459Z,20.83
2023-04-06T21:55:54.009Z,20.70
2023-04-06T21:58:21.335Z,21.98
2023-04-06T22:00:47.897Z,18.20
2023-04-06T22:03:14.615Z,16.48
2023-04-06T22:05:41.217Z,18.30
2023-04-06T22:08:09.522Z,18.75
2023-04-06T22:10:38.641Z,19.75
2023-04-06T22:13:05.150Z,20.73
2023-04-06T22:15:31.617Z,18.50
2023-04-06T22:17:58.191Z,20.27
2023-04-06T22:20:24.728Z,20.48
2023-04-06T22:22:51.277Z,19.10
2023-04-06T22:25:17.809Z,18.52
2023-04-06T22:27:44.274Z,20.08
2023-04-06T22:30:11.088Z,20.93
2023-04-06T22:32:38.713Z,19.23
2023-04-06T22:35:05.870Z,18.70
2023-04-06T22:37:32.677Z,18.95
2023-04-06T22:39:59.209Z,19.27
2023-04-06T22:42:26.637Z,18.87
2023-04-06T22:44:53.125Z,19.80
2023-04-06T22:47:19.619Z,20.27
2023-04-06T22:49:46.525Z,21.35
2023-04-06T22:52:13.023Z,23.10
2023-04-06T22:54:39.535Z,24.10
2023-04-06T22:57:06.280Z,21.98
2023-04-06T22:59:32.772Z,21.88
2023-04-06T23:01:59.594Z,22.17
2023-04-06T23:04:26.325Z,21.17
2023-04-06T23:06:52.791Z,19.47
2023-04-06T23:09:19.292Z,21.23
2023-04-06T23:11:45.918Z,21.50
2023-04-06T23:14:12.437Z,21.65
2023-04-06T23:16:39.017Z,21.35
2023-04-06T23:19:05.743Z,19.90
2023-04-06T23:21:33.233Z,21.23
2023-04-06T23:24:00.797Z,21.85
2023-04-06T23:26:27.495Z,22.55
2023-04-06T23:28:53.974Z,21.85
2023-04-06T23:31:20.428Z,21.03
2023-04-06T23:33:46.948Z,20.55
2023-04-06T23:36:13.497Z,22.67
2023-04-06T23:38:40.011Z,20.77
2023-04-06T23:41:06.547Z,20.80
2023-04-06T23:43:32.948Z,18.70
2023-04-06T23:45:59.476Z,20.83
2023-04-06T23:48:26.030Z,21.10
2023-04-06T23:50:52.728Z,18.63
2023-04-06T23:53:19.529Z,20.48
2023-04-06T23:55:46.046Z,20.80
2023-04-06T23:58:12.659Z,20.17
